sensor_id;sensor_type;location;lat;lon;timestamp;P1;durP1;ratioP1;P2;durP2;ratioP2
11964;SDS011;6042;41.326;19.826;2023-05-14T00:01:50;29.13;;;24.23;;
11964;SDS011;6042;41.326;19.826;2023-05-14T00:04:18;29.63;;;23.87;;
11964;SDS011;6042;41.326;19.826;2023-05-14T00:06:48;29.93;;;24.70;;
11964;SDS011;6042;41.326;19.826;2023-05-14T00:09:18;28.10;;;23.37;;
11964;SDS011;6042;41.326;19.826;2023-05-14T00:11:46;28.03;;;23.17;;
11964;SDS011;6042;41.326;19.826;2023-05-14T00:14:15;23.27;;;20.63;;
11964;SDS011;6042;41.326;19.826;2023-05-14T00:16:43;22.57;;;19.37;;
11964;SDS011;6042;41.326;19.826;2023-05-14T00:19:12;23.23;;;20.57;;
11964;SDS011;6042;41.326;19.826;2023-05-14T00:21:41;23.27;;;20.43;;
11964;SDS011;6042;41.326;19.826;2023-05-14T00:24:09;25.87;;;23.07;;
11964;SDS011;6042;41.326;19.826;2023-05-14T00:26:39;22.63;;;18.33;;
11964;SDS011;6042;41.326;19.826;2023-05-14T00:29:08;25.63;;;18.07;;
11964;SDS011;6042;41.326;19.826;2023-05-14T00:31:36;24.30;;;20.03;;
11964;SDS011;6042;41.326;19.826;2023-05-14T00:34:05;22.97;;;20.43;;
11964;SDS011;6042;41.326;19.826;2023-05-14T00:36:33;23.80;;;19.77;;
11964;SDS011;6042;41.326;19.826;2023-05-14T00:39:02;24.67;;;19.43;;
11964;SDS011;6042;41.326;19.826;2023-05-14T00:41:30;23.37;;;19.97;;
11964;SDS011;6042;41.326;19.826;2023-05-14T00:44:00;19.93;;;17.47;;
11964;SDS011;6042;41.326;19.826;2023-05-14T00:46:29;20.53;;;18.33;;
11964;SDS011;6042;41.326;19.826;2023-05-14T00:48:57;20.53;;;16.60;;
11964;SDS011;6042;41.326;19.826;2023-05-14T00:51:26;15.07;;;12.77;;
11964;SDS011;6042;41.326;19.826;2023-05-14T00:53:55;13.33;;;11.93;;
11964;SDS011;6042;41.326;19.826;2023-05-14T00:56:23;15.93;;;11.90;;
11964;SDS011;6042;41.326;19.826;2023-05-14T00:58:53;15.10;;;12.57;;
11964;SDS011;6042;41.326;19.826;2023-05-14T01:01:23;14.70;;;12.20;;
11964;SDS011;6042;41.326;19.826;2023-05-14T01:03:54;14.93;;;11.67;;
11964;SDS011;6042;41.326;19.826;2023-05-14T01:06:25;13.10;;;11.60;;
11964;SDS011;6042;41.326;19.826;2023-05-14T01:09:08;14.67;;;11.83;;
11964;SDS011;6042;41.326;19.826;2023-05-14T01:11:46;14.07;;;11.37;;
11964;SDS011;6042;41.326;19.826;2023-05-14T01:14:22;15.13;;;11.23;;
11964;SDS011;6042;41.326;19.826;2023-05-14T01:16:58;15.73;;;11.10;;
11964;SDS011;6042;41.326;19.826;2023-05-14T01:19:32;13.60;;;11.23;;
11964;SDS011;6042;41.326;19.826;2023-05-14T01:22:07;18.97;;;12.33;;
11964;SDS011;6042;41.326;19.826;2023-05-14T01:24:35;13.77;;;11.73;;
11964;SDS011;6042;41.326;19.826;2023-05-14T01:27:05;16.00;;;12.53;;
11964;SDS011;6042;41.326;19.826;2023-05-14T01:29:37;17.30;;;11.60;;
11964;SDS011;6042;41.326;19.826;2023-05-14T01:32:09;12.20;;;10.87;;
11964;SDS011;6042;41.326;19.826;2023-05-14T01:34:40;13.53;;;10.70;;
11964;SDS011;6042;41.326;19.826;2023-05-14T01:37:11;14.53;;;10.97;;
11964;SDS011;6042;41.326;19.826;2023-05-14T01:39:42;12.03;;;10.70;;
11964;SDS011;6042;41.326;19.826;2023-05-14T01:42:11;15.77;;;11.03;;
11964;SDS011;6042;41.326;19.826;2023-05-14T01:44:41;14.43;;;11.33;;
11964;SDS011;6042;41.326;19.826;2023-05-14T01:47:10;14.73;;;11.07;;
11964;SDS011;6042;41.326;19.826;2023-05-14T01:49:39;12.53;;;10.47;;
11964;SDS011;6042;41.326;19.826;2023-05-14T01:52:07;17.23;;;11.63;;
11964;SDS011;6042;41.326;19.826;2023-05-14T01:54:38;18.03;;;12.30;;
11964;SDS011;6042;41.326;19.826;2023-05-14T01:57:07;19.13;;;13.83;;
11964;SDS011;6042;41.326;19.826;2023-05-14T01:59:35;27.73;;;21.63;;
11964;SDS011;6042;41.326;19.826;2023-05-14T02:02:04;26.97;;;21.73;;
11964;SDS011;6042;41.326;19.826;2023-05-14T02:04:34;29.97;;;24.10;;
11964;SDS011;6042;41.326;19.826;2023-05-14T02:07:03;28.17;;;22.93;;
11964;SDS011;6042;41.326;19.826;2023-05-14T02:09:31;30.93;;;24.23;;
11964;SDS011;6042;41.326;19.826;2023-05-14T02:12:01;32.03;;;24.57;;
11964;SDS011;6042;41.326;19.826;2023-05-14T02:14:29;31.23;;;25.03;;
11964;SDS011;6042;41.326;19.826;2023-05-14T02:16:58;32.83;;;24.63;;
11964;SDS011;6042;41.326;19.826;2023-05-14T02:19:27;33.37;;;25.30;;
11964;SDS011;6042;41.326;19.826;2023-05-14T02:21:57;37.23;;;25.97;;
11964;SDS011;6042;41.326;19.826;2023-05-14T02:24:26;34.23;;;24.77;;
11964;SDS011;6042;41.326;19.826;2023-05-14T02:26:54;34.17;;;26.03;;
11964;SDS011;6042;41.326;19.826;2023-05-14T02:29:27;35.43;;;26.93;;
11964;SDS011;6042;41.326;19.826;2023-05-14T02:31:55;32.13;;;26.60;;
11964;SDS011;6042;41.326;19.826;2023-05-14T02:34:24;31.20;;;23.70;;
11964;SDS011;6042;41.326;19.826;2023-05-14T02:36:53;28.60;;;21.70;;
11964;SDS011;6042;41.326;19.826;2023-05-14T02:39:22;26.73;;;20.30;;
11964;SDS011;6042;41.326;19.826;2023-05-14T02:41:50;19.70;;;15.90;;
11964;SDS011;6042;41.326;19.826;2023-05-14T02:44:18;16.13;;;13.60;;
11964;SDS011;6042;41.326;19.826;2023-05-14T02:46:48;14.43;;;11.57;;
11964;SDS011;6042;41.326;19.826;2023-05-14T02:49:17;19.40;;;13.47;;
11964;SDS011;6042;41.326;19.826;2023-05-14T02:51:45;16.90;;;13.47;;
11964;SDS011;6042;41.326;19.826;2023-05-14T02:54:13;15.77;;;12.80;;
11964;SDS011;6042;41.326;19.826;2023-05-14T02:56:42;14.70;;;12.53;;
11964;SDS011;6042;41.326;19.826;2023-05-14T02:59:11;15.73;;;12.83;;
11964;SDS011;6042;41.326;19.826;2023-05-14T03:01:39;18.20;;;12.70;;
11964;SDS011;6042;41.326;19.826;2023-05-14T03:04:09;12.40;;;10.90;;
11964;SDS011;6042;41.326;19.826;2023-05-14T03:06:38;13.27;;;10.93;;
11964;SDS011;6042;41.326;19.826;2023-05-14T03:09:06;12.80;;;10.77;;
11964;SDS011;6042;41.326;19.826;2023-05-14T03:11:35;13.60;;;10.77;;
11964;SDS011;6042;41.326;19.826;2023-05-14T03:14:03;13.43;;;9.97;;
11964;SDS011;6042;41.326;19.826;2023-05-14T03:16:32;12.83;;;10.33;;
11964;SDS011;6042;41.326;19.826;2023-05-14T03:19:00;14.23;;;10.03;;
11964;SDS011;6042;41.326;19.826;2023-05-14T03:21:30;12.60;;;8.93;;
11964;SDS011;6042;41.326;19.826;2023-05-14T03:23:59;11.77;;;9.47;;
11964;SDS011;6042;41.326;19.826;2023-05-14T03:26:28;13.90;;;9.23;;
11964;SDS011;6042;41.326;19.826;2023-05-14T03:28:56;13.93;;;9.20;;
11964;SDS011;6042;41.326;19.826;2023-05-14T03:31:24;16.57;;;9.33;;
11964;SDS011;6042;41.326;19.826;2023-05-14T03:33:55;15.20;;;10.53;;
11964;SDS011;6042;41.326;19.826;2023-05-14T03:36:23;16.27;;;10.77;;
11964;SDS011;6042;41.326;19.826;2023-05-14T03:38:53;11.03;;;9.93;;
11964;SDS011;6042;41.326;19.826;2023-05-14T03:41:22;13.43;;;8.40;;
11964;SDS011;6042;41.326;19.826;2023-05-14T03:43:50;11.13;;;7.70;;
11964;SDS011;6042;41.326;19.826;2023-05-14T03:46:18;12.33;;;8.20;;
11964;SDS011;6042;41.326;19.826;2023-05-14T03:48:47;11.80;;;7.73;;
11964;SDS011;6042;41.326;19.826;2023-05-14T03:51:15;9.70;;;6.93;;
11964;SDS011;6042;41.326;19.826;2023-05-14T03:53:44;8.20;;;6.57;;
11964;SDS011;6042;41.326;19.826;2023-05-14T03:56:14;11.63;;;6.77;;
11964;SDS011;6042;41.326;19.826;2023-05-14T03:58:42;8.37;;;5.60;;
11964;SDS011;6042;41.326;19.826;2023-05-14T04:01:11;10.60;;;6.70;;
11964;SDS011;6042;41.326;19.826;2023-05-14T04:03:39;11.57;;;6.17;;
11964;SDS011;6042;41.326;19.826;2023-05-14T04:06:08;12.67;;;7.43;;
11964;SDS011;6042;41.326;19.826;2023-05-14T04:08:37;8.77;;;7.70;;
11964;SDS011;6042;41.326;19.826;2023-05-14T04:11:05;9.67;;;7.57;;
11964;SDS011;6042;41.326;19.826;2023-05-14T04:13:35;11.27;;;7.60;;
11964;SDS011;6042;41.326;19.826;2023-05-14T04:16:04;10.50;;;6.60;;
11964;SDS011;6042;41.326;19.826;2023-05-14T04:18:33;12.60;;;8.50;;
11964;SDS011;6042;41.326;19.826;2023-05-14T04:21:02;12.83;;;8.47;;
11964;SDS011;6042;41.326;19.826;2023-05-14T04:23:31;11.90;;;8.40;;
11964;SDS011;6042;41.326;19.826;2023-05-14T04:25:59;14.27;;;10.23;;
11964;SDS011;6042;41.326;19.826;2023-05-14T04:28:28;17.00;;;11.83;;
11964;SDS011;6042;41.326;19.826;2023-05-14T04:30:57;18.67;;;12.70;;
11964;SDS011;6042;41.326;19.826;2023-05-14T04:33:26;17.80;;;14.70;;
11964;SDS011;6042;41.326;19.826;2023-05-14T04:35:54;18.40;;;14.80;;
11964;SDS011;6042;41.326;19.826;2023-05-14T04:38:23;16.63;;;15.03;;
11964;SDS011;6042;41.326;19.826;2023-05-14T04:40:51;18.60;;;15.97;;
11964;SDS011;6042;41.326;19.826;2023-05-14T04:43:20;19.77;;;16.37;;
11964;SDS011;6042;41.326;19.826;2023-05-14T04:45:48;21.27;;;17.10;;
11964;SDS011;6042;41.326;19.826;2023-05-14T04:48:18;22.77;;;17.17;;
11964;SDS011;6042;41.326;19.826;2023-05-14T04:50:47;17.63;;;15.83;;
11964;SDS011;6042;41.326;19.826;2023-05-14T04:53:15;20.43;;;15.97;;
11964;SDS011;6042;41.326;19.826;2023-05-14T04:55:43;18.17;;;15.57;;
11964;SDS011;6042;41.326;19.826;2023-05-14T04:58:12;20.67;;;15.73;;
11964;SDS011;6042;41.326;19.826;2023-05-14T05:00:40;17.67;;;15.00;;
11964;SDS011;6042;41.326;19.826;2023-05-14T05:03:09;20.13;;;16.03;;
11964;SDS011;6042;41.326;19.826;2023-05-14T05:05:39;21.07;;;16.23;;
11964;SDS011;6042;41.326;19.826;2023-05-14T05:08:07;18.23;;;15.27;;
11964;SDS011;6042;41.326;19.826;2023-05-14T05:10:36;16.37;;;14.63;;
11964;SDS011;6042;41.326;19.826;2023-05-14T05:13:05;16.40;;;13.93;;
11964;SDS011;6042;41.326;19.826;2023-05-14T05:15:33;20.17;;;14.97;;
11964;SDS011;6042;41.326;19.826;2023-05-14T05:18:02;19.37;;;14.23;;
11964;SDS011;6042;41.326;19.826;2023-05-14T05:20:31;16.70;;;14.23;;
11964;SDS011;6042;41.326;19.826;2023-05-14T05:23:00;15.77;;;14.07;;
11964;SDS011;6042;41.326;19.826;2023-05-14T05:25:29;16.53;;;14.00;;
11964;SDS011;6042;41.326;19.826;2023-05-14T05:27:58;15.33;;;13.33;;
11964;SDS011;6042;41.326;19.826;2023-05-14T05:30:26;14.60;;;13.10;;
11964;SDS011;6042;41.326;19.826;2023-05-14T05:32:55;16.30;;;14.10;;
11964;SDS011;6042;41.326;19.826;2023-05-14T05:35:24;16.20;;;13.20;;
11964;SDS011;6042;41.326;19.826;2023-05-14T05:37:52;17.30;;;13.23;;
11964;SDS011;6042;41.326;19.826;2023-05-14T05:40:22;14.27;;;12.20;;
11964;SDS011;6042;41.326;19.826;2023-05-14T05:42:51;15.70;;;14.20;;
11964;SDS011;6042;41.326;19.826;2023-05-14T05:45:19;18.67;;;13.53;;
11964;SDS011;6042;41.326;19.826;2023-05-14T05:47:48;16.03;;;13.60;;
11964;SDS011;6042;41.326;19.826;2023-05-14T05:50:16;17.37;;;13.60;;
11964;SDS011;6042;41.326;19.826;2023-05-14T05:52:48;16.23;;;14.53;;
11964;SDS011;6042;41.326;19.826;2023-05-14T05:55:16;19.67;;;14.40;;
11964;SDS011;6042;41.326;19.826;2023-05-14T05:57:46;15.33;;;12.80;;
11964;SDS011;6042;41.326;19.826;2023-05-14T06:00:15;18.50;;;13.83;;
11964;SDS011;6042;41.326;19.826;2023-05-14T06:02:44;15.73;;;14.17;;
11964;SDS011;6042;41.326;19.826;2023-05-14T06:05:13;15.47;;;13.67;;
11964;SDS011;6042;41.326;19.826;2023-05-14T06:07:42;16.57;;;14.87;;
11964;SDS011;6042;41.326;19.826;2023-05-14T06:10:10;14.87;;;13.47;;
11964;SDS011;6042;41.326;19.826;2023-05-14T06:12:39;16.80;;;13.53;;
11964;SDS011;6042;41.326;19.826;2023-05-14T06:15:09;17.57;;;13.27;;
11964;SDS011;6042;41.326;19.826;2023-05-14T06:17:40;14.23;;;12.70;;
11964;SDS011;6042;41.326;19.826;2023-05-14T06:20:09;14.53;;;13.07;;
11964;SDS011;6042;41.326;19.826;2023-05-14T06:22:38;14.60;;;12.83;;
11964;SDS011;6042;41.326;19.826;2023-05-14T06:25:06;14.23;;;12.77;;
11964;SDS011;6042;41.326;19.826;2023-05-14T06:27:35;16.50;;;13.20;;
11964;SDS011;6042;41.326;19.826;2023-05-14T06:30:04;13.70;;;11.80;;
11964;SDS011;6042;41.326;19.826;2023-05-14T06:32:35;13.70;;;11.87;;
11964;SDS011;6042;41.326;19.826;2023-05-14T06:35:04;16.27;;;12.40;;
11964;SDS011;6042;41.326;19.826;2023-05-14T06:37:33;13.10;;;11.57;;
11964;SDS011;6042;41.326;19.826;2023-05-14T06:40:02;15.90;;;12.73;;
11964;SDS011;6042;41.326;19.826;2023-05-14T06:42:31;16.33;;;12.20;;
11964;SDS011;6042;41.326;19.826;2023-05-14T06:44:59;15.63;;;12.87;;
11964;SDS011;6042;41.326;19.826;2023-05-14T06:47:28;14.27;;;12.77;;
11964;SDS011;6042;41.326;19.826;2023-05-14T06:49:58;16.07;;;13.57;;
11964;SDS011;6042;41.326;19.826;2023-05-14T06:52:27;18.60;;;13.57;;
11964;SDS011;6042;41.326;19.826;2023-05-14T06:54:55;11.70;;;10.50;;
11964;SDS011;6042;41.326;19.826;2023-05-14T06:57:24;12.53;;;9.20;;
11964;SDS011;6042;41.326;19.826;2023-05-14T06:59:52;11.10;;;8.53;;
11964;SDS011;6042;41.326;19.826;2023-05-14T07:02:21;11.70;;;8.73;;
11964;SDS011;6042;41.326;19.826;2023-05-14T07:04:49;10.77;;;8.47;;
11964;SDS011;6042;41.326;19.826;2023-05-14T07:07:20;16.13;;;9.87;;
11964;SDS011;6042;41.326;19.826;2023-05-14T07:09:48;11.50;;;8.70;;
11964;SDS011;6042;41.326;19.826;2023-05-14T07:12:17;12.87;;;8.57;;
11964;SDS011;6042;41.326;19.826;2023-05-14T07:14:45;11.90;;;8.33;;
11964;SDS011;6042;41.326;19.826;2023-05-14T07:17:13;10.20;;;8.00;;
11964;SDS011;6042;41.326;19.826;2023-05-14T07:19:44;10.30;;;8.33;;
11964;SDS011;6042;41.326;19.826;2023-05-14T07:22:12;15.07;;;8.13;;
11964;SDS011;6042;41.326;19.826;2023-05-14T07:24:42;16.03;;;7.40;;
11964;SDS011;6042;41.326;19.826;2023-05-14T07:27:10;6.97;;;5.40;;
11964;SDS011;6042;41.326;19.826;2023-05-14T07:29:39;12.10;;;5.50;;
11964;SDS011;6042;41.326;19.826;2023-05-14T07:32:07;8.53;;;4.03;;
11964;SDS011;6042;41.326;19.826;2023-05-14T07:34:38;10.47;;;3.60;;
11964;SDS011;6042;41.326;19.826;2023-05-14T07:37:06;8.00;;;3.80;;
11964;SDS011;6042;41.326;19.826;2023-05-14T07:39:34;8.90;;;3.50;;
11964;SDS011;6042;41.326;19.826;2023-05-14T07:42:04;11.13;;;3.20;;
11964;SDS011;6042;41.326;19.826;2023-05-14T07:44:33;9.23;;;2.93;;
11964;SDS011;6042;41.326;19.826;2023-05-14T07:47:01;6.70;;;2.57;;
11964;SDS011;6042;41.326;19.826;2023-05-14T07:49:32;10.53;;;3.57;;
11964;SDS011;6042;41.326;19.826;2023-05-14T07:52:01;9.07;;;2.80;;
11964;SDS011;6042;41.326;19.826;2023-05-14T07:54:30;13.37;;;3.23;;
11964;SDS011;6042;41.326;19.826;2023-05-14T07:56:58;11.83;;;3.13;;
11964;SDS011;6042;41.326;19.826;2023-05-14T07:59:28;12.83;;;3.50;;
11964;SDS011;6042;41.326;19.826;2023-05-14T08:01:57;8.90;;;3.43;;
11964;SDS011;6042;41.326;19.826;2023-05-14T08:04:26;9.67;;;3.60;;
11964;SDS011;6042;41.326;19.826;2023-05-14T08:06:54;9.47;;;3.43;;
11964;SDS011;6042;41.326;19.826;2023-05-14T08:09:23;9.80;;;3.70;;
11964;SDS011;6042;41.326;19.826;2023-05-14T08:11:52;10.53;;;3.63;;
11964;SDS011;6042;41.326;19.826;2023-05-14T08:14:20;10.37;;;3.37;;
11964;SDS011;6042;41.326;19.826;2023-05-14T08:16:50;8.20;;;3.00;;
11964;SDS011;6042;41.326;19.826;2023-05-14T08:19:18;10.43;;;3.20;;
11964;SDS011;6042;41.326;19.826;2023-05-14T08:21:47;7.37;;;2.93;;
11964;SDS011;6042;41.326;19.826;2023-05-14T08:24:15;9.17;;;3.10;;
11964;SDS011;6042;41.326;19.826;2023-05-14T08:26:44;13.70;;;3.27;;
11964;SDS011;6042;41.326;19.826;2023-05-14T08:29:13;10.10;;;3.33;;
11964;SDS011;6042;41.326;19.826;2023-05-14T08:31:42;11.03;;;3.80;;
11964;SDS011;6042;41.326;19.826;2023-05-14T08:34:11;6.37;;;2.70;;
11964;SDS011;6042;41.326;19.826;2023-05-14T08:36:40;8.83;;;3.37;;
11964;SDS011;6042;41.326;19.826;2023-05-14T08:39:08;10.63;;;3.00;;
11964;SDS011;6042;41.326;19.826;2023-05-14T08:41:37;9.00;;;3.47;;
11964;SDS011;6042;41.326;19.826;2023-05-14T08:44:07;11.80;;;3.13;;
11964;SDS011;6042;41.326;19.826;2023-05-14T08:46:40;12.23;;;3.60;;
11964;SDS011;6042;41.326;19.826;2023-05-14T08:49:14;12.03;;;3.63;;
11964;SDS011;6042;41.326;19.826;2023-05-14T08:51:48;10.77;;;3.50;;
11964;SDS011;6042;41.326;19.826;2023-05-14T08:54:16;12.50;;;3.70;;
11964;SDS011;6042;41.326;19.826;2023-05-14T08:56:48;10.63;;;3.03;;
11964;SDS011;6042;41.326;19.826;2023-05-14T08:59:18;9.77;;;3.00;;
11964;SDS011;6042;41.326;19.826;2023-05-14T09:01:47;10.10;;;3.33;;
11964;SDS011;6042;41.326;19.826;2023-05-14T09:04:20;8.83;;;3.13;;
11964;SDS011;6042;41.326;19.826;2023-05-14T09:06:50;13.23;;;3.50;;
11964;SDS011;6042;41.326;19.826;2023-05-14T09:09:19;14.87;;;3.80;;
11964;SDS011;6042;41.326;19.826;2023-05-14T09:11:49;9.10;;;3.97;;
11964;SDS011;6042;41.326;19.826;2023-05-14T09:14:18;8.83;;;3.47;;
11964;SDS011;6042;41.326;19.826;2023-05-14T09:16:47;15.20;;;3.60;;
11964;SDS011;6042;41.326;19.826;2023-05-14T09:19:17;11.90;;;3.37;;
11964;SDS011;6042;41.326;19.826;2023-05-14T09:21:47;11.30;;;3.33;;
11964;SDS011;6042;41.326;19.826;2023-05-14T09:24:19;13.47;;;3.70;;
11964;SDS011;6042;41.326;19.826;2023-05-14T09:26:49;10.50;;;3.73;;
11964;SDS011;6042;41.326;19.826;2023-05-14T09:29:19;11.60;;;3.50;;
11964;SDS011;6042;41.326;19.826;2023-05-14T09:31:49;9.87;;;3.87;;
11964;SDS011;6042;41.326;19.826;2023-05-14T09:34:24;9.97;;;3.80;;
11964;SDS011;6042;41.326;19.826;2023-05-14T09:36:56;13.50;;;4.17;;
11964;SDS011;6042;41.326;19.826;2023-05-14T09:39:26;7.60;;;3.67;;
11964;SDS011;6042;41.326;19.826;2023-05-14T09:41:55;8.97;;;3.73;;
11964;SDS011;6042;41.326;19.826;2023-05-14T09:44:23;10.17;;;3.67;;
11964;SDS011;6042;41.326;19.826;2023-05-14T09:46:53;11.67;;;4.00;;
11964;SDS011;6042;41.326;19.826;2023-05-14T09:49:21;11.27;;;3.60;;
11964;SDS011;6042;41.326;19.826;2023-05-14T09:51:50;16.63;;;4.00;;
11964;SDS011;6042;41.326;19.826;2023-05-14T09:54:20;9.27;;;4.03;;
11964;SDS011;6042;41.326;19.826;2023-05-14T09:56:48;13.50;;;4.40;;
11964;SDS011;6042;41.326;19.826;2023-05-14T09:59:18;9.90;;;3.80;;
11964;SDS011;6042;41.326;19.826;2023-05-14T10:01:47;12.60;;;3.20;;
11964;SDS011;6042;41.326;19.826;2023-05-14T10:04:17;10.70;;;4.00;;
11964;SDS011;6042;41.326;19.826;2023-05-14T10:06:46;8.80;;;4.23;;
11964;SDS011;6042;41.326;19.826;2023-05-14T10:09:21;13.27;;;3.80;;
11964;SDS011;6042;41.326;19.826;2023-05-14T10:11:55;11.60;;;4.27;;
11964;SDS011;6042;41.326;19.826;2023-05-14T10:14:28;11.77;;;4.93;;
11964;SDS011;6042;41.326;19.826;2023-05-14T10:17:00;16.67;;;5.53;;
11964;SDS011;6042;41.326;19.826;2023-05-14T10:19:30;13.90;;;8.37;;
11964;SDS011;6042;41.326;19.826;2023-05-14T10:22:02;12.03;;;4.03;;
11964;SDS011;6042;41.326;19.826;2023-05-14T10:24:33;10.87;;;3.57;;
11964;SDS011;6042;41.326;19.826;2023-05-14T10:27:04;9.30;;;4.30;;
11964;SDS011;6042;41.326;19.826;2023-05-14T10:29:33;7.20;;;3.13;;
11964;SDS011;6042;41.326;19.826;2023-05-14T10:32:05;7.93;;;3.33;;
11964;SDS011;6042;41.326;19.826;2023-05-14T10:34:35;10.27;;;3.53;;
11964;SDS011;6042;41.326;19.826;2023-05-14T10:37:07;12.93;;;3.73;;
11964;SDS011;6042;41.326;19.826;2023-05-14T10:39:42;10.43;;;3.90;;
11964;SDS011;6042;41.326;19.826;2023-05-14T10:42:12;8.07;;;2.93;;
11964;SDS011;6042;41.326;19.826;2023-05-14T10:44:48;8.67;;;3.13;;
11964;SDS011;6042;41.326;19.826;2023-05-14T10:47:21;7.40;;;3.07;;
11964;SDS011;6042;41.326;19.826;2023-05-14T10:49:51;7.67;;;3.17;;
11964;SDS011;6042;41.326;19.826;2023-05-14T10:52:21;6.70;;;3.00;;
11964;SDS011;6042;41.326;19.826;2023-05-14T10:54:53;10.17;;;3.03;;
11964;SDS011;6042;41.326;19.826;2023-05-14T10:57:25;9.63;;;4.03;;
11964;SDS011;6042;41.326;19.826;2023-05-14T10:59:55;7.53;;;2.53;;
11964;SDS011;6042;41.326;19.826;2023-05-14T11:02:24;11.27;;;3.20;;
11964;SDS011;6042;41.326;19.826;2023-05-14T11:04:54;8.30;;;2.63;;
11964;SDS011;6042;41.326;19.826;2023-05-14T11:07:29;12.93;;;3.30;;
11964;SDS011;6042;41.326;19.826;2023-05-14T11:10:01;6.90;;;2.77;;
11964;SDS011;6042;41.326;19.826;2023-05-14T11:12:31;6.80;;;3.63;;
11964;SDS011;6042;41.326;19.826;2023-05-14T11:15:01;7.60;;;2.90;;
11964;SDS011;6042;41.326;19.826;2023-05-14T11:17:31;8.50;;;3.30;;
11964;SDS011;6042;41.326;19.826;2023-05-14T11:19:59;8.93;;;3.17;;
11964;SDS011;6042;41.326;19.826;2023-05-14T11:22:28;8.87;;;4.00;;
11964;SDS011;6042;41.326;19.826;2023-05-14T11:24:56;9.90;;;2.77;;
11964;SDS011;6042;41.326;19.826;2023-05-14T11:27:27;8.13;;;3.77;;
11964;SDS011;6042;41.326;19.826;2023-05-14T11:29:57;9.40;;;3.40;;
11964;SDS011;6042;41.326;19.826;2023-05-14T11:32:27;9.23;;;4.07;;
11964;SDS011;6042;41.326;19.826;2023-05-14T11:34:56;6.87;;;3.87;;
11964;SDS011;6042;41.326;19.826;2023-05-14T11:37:24;10.43;;;4.10;;
11964;SDS011;6042;41.326;19.826;2023-05-14T11:39:54;9.57;;;4.00;;
11964;SDS011;6042;41.326;19.826;2023-05-14T11:42:22;8.17;;;4.10;;
11964;SDS011;6042;41.326;19.826;2023-05-14T11:44:52;13.60;;;4.50;;
11964;SDS011;6042;41.326;19.826;2023-05-14T11:47:21;7.60;;;3.80;;
11964;SDS011;6042;41.326;19.826;2023-05-14T11:49:49;14.50;;;3.20;;
11964;SDS011;6042;41.326;19.826;2023-05-14T11:52:17;8.20;;;3.10;;
11964;SDS011;6042;41.326;19.826;2023-05-14T11:54:47;8.37;;;3.40;;
11964;SDS011;6042;41.326;19.826;2023-05-14T11:57:17;9.30;;;5.27;;
11964;SDS011;6042;41.326;19.826;2023-05-14T11:59:47;12.47;;;4.10;;
11964;SDS011;6042;41.326;19.826;2023-05-14T12:02:23;11.30;;;4.20;;
11964;SDS011;6042;41.326;19.826;2023-05-14T12:04:54;10.40;;;5.07;;
11964;SDS011;6042;41.326;19.826;2023-05-14T12:07:27;9.50;;;3.67;;
11964;SDS011;6042;41.326;19.826;2023-05-14T12:09:59;10.80;;;4.00;;
11964;SDS011;6042;41.326;19.826;2023-05-14T12:12:32;14.57;;;8.13;;
11964;SDS011;6042;41.326;19.826;2023-05-14T12:15:09;32.13;;;21.53;;
11964;SDS011;6042;41.326;19.826;2023-05-14T12:17:39;15.93;;;9.43;;
11964;SDS011;6042;41.326;19.826;2023-05-14T12:20:08;10.40;;;3.87;;
11964;SDS011;6042;41.326;19.826;2023-05-14T12:22:40;11.97;;;4.30;;
11964;SDS011;6042;41.326;19.826;2023-05-14T12:25:09;15.77;;;4.33;;
11964;SDS011;6042;41.326;19.826;2023-05-14T12:27:40;9.83;;;3.60;;
11964;SDS011;6042;41.326;19.826;2023-05-14T12:30:11;13.47;;;4.03;;
11964;SDS011;6042;41.326;19.826;2023-05-14T12:33:01;12.37;;;3.97;;
11964;SDS011;6042;41.326;19.826;2023-05-14T12:35:30;11.20;;;4.13;;
11964;SDS011;6042;41.326;19.826;2023-05-14T12:37:59;7.43;;;4.00;;
11964;SDS011;6042;41.326;19.826;2023-05-14T12:40:27;9.00;;;3.73;;
11964;SDS011;6042;41.326;19.826;2023-05-14T12:42:55;9.57;;;4.37;;
11964;SDS011;6042;41.326;19.826;2023-05-14T12:45:24;22.67;;;12.00;;
11964;SDS011;6042;41.326;19.826;2023-05-14T12:47:52;12.73;;;6.70;;
11964;SDS011;6042;41.326;19.826;2023-05-14T12:50:22;5.47;;;3.60;;
11964;SDS011;6042;41.326;19.826;2023-05-14T12:52:51;9.90;;;4.17;;
11964;SDS011;6042;41.326;19.826;2023-05-14T12:55:20;11.27;;;4.27;;
11964;SDS011;6042;41.326;19.826;2023-05-14T12:57:48;12.07;;;4.23;;
11964;SDS011;6042;41.326;19.826;2023-05-14T13:00:17;12.43;;;6.27;;
11964;SDS011;6042;41.326;19.826;2023-05-14T13:02:46;8.53;;;4.37;;
11964;SDS011;6042;41.326;19.826;2023-05-14T13:05:15;10.97;;;4.80;;
11964;SDS011;6042;41.326;19.826;2023-05-14T13:07:45;13.03;;;4.83;;
11964;SDS011;6042;41.326;19.826;2023-05-14T13:10:13;10.03;;;4.23;;
11964;SDS011;6042;41.326;19.826;2023-05-14T13:12:43;9.60;;;3.63;;
11964;SDS011;6042;41.326;19.826;2023-05-14T13:15:12;8.50;;;3.97;;
11964;SDS011;6042;41.326;19.826;2023-05-14T13:17:40;11.33;;;3.70;;
11964;SDS011;6042;41.326;19.826;2023-05-14T13:20:09;13.03;;;4.13;;
11964;SDS011;6042;41.326;19.826;2023-05-14T13:22:37;14.07;;;4.00;;
11964;SDS011;6042;41.326;19.826;2023-05-14T13:25:08;9.67;;;3.77;;
11964;SDS011;6042;41.326;19.826;2023-05-14T13:27:36;8.87;;;4.20;;
11964;SDS011;6042;41.326;19.826;2023-05-14T13:30:05;9.23;;;3.63;;
11964;SDS011;6042;41.326;19.826;2023-05-14T13:32:35;7.67;;;3.47;;
11964;SDS011;6042;41.326;19.826;2023-05-14T13:35:07;9.70;;;3.47;;
11964;SDS011;6042;41.326;19.826;2023-05-14T13:37:35;9.30;;;3.43;;
11964;SDS011;6042;41.326;19.826;2023-05-14T13:40:04;8.50;;;3.30;;
11964;SDS011;6042;41.326;19.826;2023-05-14T13:42:35;10.60;;;3.33;;
11964;SDS011;6042;41.326;19.826;2023-05-14T13:45:06;7.10;;;3.50;;
11964;SDS011;6042;41.326;19.826;2023-05-14T13:47:35;7.57;;;3.10;;
11964;SDS011;6042;41.326;19.826;2023-05-14T13:50:05;6.87;;;3.47;;
11964;SDS011;6042;41.326;19.826;2023-05-14T13:52:34;6.50;;;3.53;;
11964;SDS011;6042;41.326;19.826;2023-05-14T13:55:05;9.87;;;3.03;;
11964;SDS011;6042;41.326;19.826;2023-05-14T13:57:35;6.13;;;3.20;;
11964;SDS011;6042;41.326;19.826;2023-05-14T14:00:05;7.90;;;3.30;;
11964;SDS011;6042;41.326;19.826;2023-05-14T14:02:35;6.90;;;2.43;;
11964;SDS011;6042;41.326;19.826;2023-05-14T14:05:03;8.47;;;2.87;;
11964;SDS011;6042;41.326;19.826;2023-05-14T14:07:32;7.10;;;2.67;;
11964;SDS011;6042;41.326;19.826;2023-05-14T14:10:00;5.23;;;2.53;;
11964;SDS011;6042;41.326;19.826;2023-05-14T14:12:30;7.03;;;3.00;;
11964;SDS011;6042;41.326;19.826;2023-05-14T14:15:00;8.77;;;3.27;;
11964;SDS011;6042;41.326;19.826;2023-05-14T14:17:29;12.87;;;3.00;;
11964;SDS011;6042;41.326;19.826;2023-05-14T14:20:00;9.33;;;3.27;;
11964;SDS011;6042;41.326;19.826;2023-05-14T14:22:31;6.20;;;2.60;;
11964;SDS011;6042;41.326;19.826;2023-05-14T14:25:00;6.13;;;2.70;;
11964;SDS011;6042;41.326;19.826;2023-05-14T14:27:28;7.73;;;2.53;;
11964;SDS011;6042;41.326;19.826;2023-05-14T14:29:57;7.57;;;2.60;;
11964;SDS011;6042;41.326;19.826;2023-05-14T14:32:27;6.20;;;2.30;;
11964;SDS011;6042;41.326;19.826;2023-05-14T14:34:56;7.80;;;2.90;;
11964;SDS011;6042;41.326;19.826;2023-05-14T14:37:24;6.10;;;2.73;;
11964;SDS011;6042;41.326;19.826;2023-05-14T14:39:53;16.57;;;4.03;;
11964;SDS011;6042;41.326;19.826;2023-05-14T14:42:21;7.87;;;2.40;;
11964;SDS011;6042;41.326;19.826;2023-05-14T14:44:49;7.50;;;2.53;;
11964;SDS011;6042;41.326;19.826;2023-05-14T14:47:18;7.33;;;2.90;;